Time;durP1;ratioP1;P1;durP2;ratioP2;P2;SDS_P1;SDS_P2;PMS_P1;PMS_P2;Temp;Humidity;BMP_temperature;BMP_pressure;BME280_temperature;BME280_humidity;BME280_pressure;Samples;Min_cycle;Max_cycle;Signal;HPM_P1;HPM_P2
2021/03/03 00:00:07;;;;;;;0.75;0.70;;;7.10;99.90;;;7.26;100.00;32485.41;5036535;28;20467;-73
2021/03/03 00:02:33;;;;;;;0.70;0.60;;;7.10;99.90;;;7.16;100.00;30573.75;5044046;28;20271;-74
2021/03/03 00:05:00;;;;;;;0.70;0.60;;;7.10;99.90;;;7.22;100.00;29919.41;5046719;28;20188;-74
2021/03/03 00:07:27;;;;;;;0.70;0.60;;;7.20;99.90;;;7.13;100.00;28376.88;5054294;28;20430;-73
2021/03/03 00:09:54;;;;;;;1.55;1.33;;;7.10;99.90;;;7.12;100.00;28591.22;5071101;28;20451;-74
2021/03/03 00:12:21;;;;;;;0.70;0.60;;;7.00;99.90;;;7.03;100.00;28596.50;5056277;28;20185;-74
2021/03/03 00:14:49;;;;;;;0.70;0.50;;;7.00;99.90;;;7.14;100.00;29472.31;5036287;28;20212;-74
2021/03/03 00:17:16;;;;;;;1.17;0.90;;;7.00;99.90;;;6.99;100.00;28278.38;5035015;28;20634;-74
2021/03/03 00:19:43;;;;;;;0.70;0.60;;;7.00;99.90;;;7.01;100.00;29750.84;5041854;28;20206;-73
2021/03/03 00:22:10;;;;;;;0.70;0.60;;;7.00;99.90;;;7.14;100.00;29254.81;5053331;28;20450;-74
2021/03/03 00:24:37;;;;;;;0.70;0.60;;;7.10;99.90;;;7.24;100.00;26704.16;5052160;28;20289;-72
2021/03/03 00:27:04;;;;;;;0.70;0.60;;;7.20;99.90;;;7.18;100.00;23344.06;5054512;28;20255;-73
2021/03/03 00:29:32;;;;;;;0.70;0.60;;;7.10;99.90;;;7.14;100.00;23090.06;5053013;28;20432;-73
2021/03/03 00:31:59;;;;;;;0.70;0.60;;;7.10;99.90;;;7.10;100.00;23002.22;5047830;28;20198;-73
2021/03/03 00:34:27;;;;;;;0.70;0.60;;;7.10;99.90;;;7.09;100.00;23835.00;5041295;28;20689;-71
2021/03/03 00:36:55;;;;;;;1.30;1.00;;;7.10;99.90;;;7.14;100.00;23196.06;5054592;28;20222;-72
2021/03/03 00:39:21;;;;;;;0.97;0.97;;;7.10;99.90;;;7.23;100.00;21945.38;5052869;28;20458;-72
2021/03/03 00:41:48;;;;;;;0.70;0.60;;;7.00;99.90;;;7.50;100.00;20495.22;5034578;28;20434;-73
2021/03/03 00:44:15;;;;;;;1.63;1.03;;;7.30;99.90;;;7.44;100.00;16293.94;5034959;28;20196;-72
2021/03/03 00:46:42;;;;;;;0.70;0.60;;;7.30;99.90;;;7.51;100.00;15890.47;5034686;28;20437;-72
2021/03/03 00:49:12;;;;;;;0.90;0.90;;;7.40;99.90;;;7.55;100.00;12611.88;5026187;28;20797;-72
2021/03/03 00:51:39;;;;;;;0.70;0.50;;;7.40;99.90;;;7.43;100.00;11380.31;5039894;28;20864;-73
2021/03/03 00:54:07;;;;;;;0.70;0.57;;;7.30;99.90;;;7.47;100.00;11069.44;5069532;28;20477;-73
2021/03/03 00:56:35;;;;;;;0.70;0.60;;;7.30;99.90;;;7.50;100.00;11502.91;5037386;28;20449;-73
2021/03/03 00:59:06;;;;;;;0.70;0.60;;;7.30;99.90;;;7.40;100.00;10924.16;5032612;28;20297;-73
2021/03/03 01:01:35;;;;;;;0.70;0.60;;;7.30;99.90;;;7.41;100.00;10011.19;5034531;28;20436;-73
2021/03/03 01:04:06;;;;;;;0.70;0.60;;;7.30;99.90;;;7.28;100.00;10707.38;5036765;28;20467;-73
2021/03/03 01:06:38;;;;;;;0.70;0.70;;;7.20;99.90;;;7.25;100.00;12020.12;5052509;28;20448;-72
2021/03/03 01:09:07;;;;;;;0.70;0.60;;;7.10;99.90;;;7.34;100.00;13039.09;5054025;28;20208;-73
2021/03/03 01:11:37;;;;;;;0.70;0.60;;;7.10;99.90;;;7.33;100.00;12857.69;5069481;28;20270;-73
2021/03/03 01:14:04;;;;;;;0.70;0.60;;;7.20;99.90;;;7.26;100.00;12191.50;5051972;28;20197;-73
2021/03/03 01:16:34;;;;;;;0.73;0.70;;;7.20;99.90;;;7.24;100.00;13003.84;5032930;28;20926;-73
2021/03/03 01:19:08;;;;;;;0.70;0.60;;;7.10;99.90;;;7.34;100.00;13678.69;5042800;28;20675;-73
2021/03/03 01:21:35;;;;;;;0.70;0.60;;;7.20;99.90;;;7.39;100.00;11633.47;5052339;28;20199;-73
2021/03/03 01:24:04;;;;;;;0.70;0.60;;;7.20;99.90;;;7.41;100.00;10982.25;5046870;28;20277;-73
2021/03/03 01:26:32;;;;;;;0.70;0.60;;;7.20;99.90;;;7.29;100.00;9515.56;5037092;28;20288;-70
2021/03/03 01:28:59;;;;;;;0.70;0.60;;;7.10;99.90;;;7.16;100.00;11620.25;5017151;28;20205;-73
2021/03/03 01:31:26;;;;;;;0.70;0.60;;;7.00;99.90;;;7.29;100.00;11510.25;5032909;28;20228;-73
2021/03/03 01:33:54;;;;;;;0.70;0.60;;;7.00;99.90;;;7.31;100.00;11382.31;5035628;28;20689;-73
2021/03/03 01:36:20;;;;;;;0.70;0.60;;;7.10;99.90;;;7.19;100.00;11598.38;5052603;28;20469;-73
2021/03/03 01:38:47;;;;;;;0.70;0.60;;;7.00;99.90;;;7.08;100.00;14174.66;5053092;28;20504;-73
2021/03/03 01:41:16;;;;;;;0.70;0.60;;;6.90;99.90;;;6.91;100.00;16558.72;5072972;28;20428;-73
2021/03/03 01:43:43;;;;;;;0.70;0.70;;;6.80;99.90;;;6.89;100.00;20201.19;5033327;28;20190;-72
2021/03/03 01:46:09;;;;;;;0.70;0.60;;;6.80;99.90;;;6.97;100.00;22275.03;5032364;28;20198;-73
2021/03/03 01:48:37;;;;;;;0.70;0.60;;;6.80;99.90;;;7.02;100.00;22352.88;5032475;28;20237;-72
2021/03/03 01:51:06;;;;;;;0.70;0.70;;;6.90;99.90;;;7.06;100.00;22463.13;5033445;28;20469;-73
2021/03/03 01:53:33;;;;;;;0.77;0.70;;;6.90;99.90;;;7.08;100.00;21749.94;5033194;28;20654;-73
2021/03/03 01:56:02;;;;;;;0.70;0.60;;;6.90;99.90;;;7.11;100.00;19945.00;5039471;28;20181;-73
2021/03/03 01:58:30;;;;;;;0.70;0.60;;;6.90;99.90;;;7.11;100.00;19511.50;5057026;28;20649;-73
2021/03/03 02:01:11;;;;;;;0.70;0.60;;;6.90;99.90;;;7.12;100.00;17838.09;5048660;28;20429;-73
2021/03/03 02:03:39;;;;;;;1.25;1.15;;;6.90;99.90;;;7.14;100.00;16279.19;5037060;28;20690;-73
2021/03/03 02:06:15;;;;;;;0.70;0.60;;;6.90;99.90;;;7.05;100.00;16757.09;5047004;28;20220;-72
2021/03/03 02:08:48;;;;;;;0.70;0.60;;;6.90;99.90;;;7.04;100.00;19201.22;5051763;28;20192;-73
2021/03/03 02:11:24;;;;;;;0.70;0.60;;;6.80;99.90;;;7.06;100.00;19474.25;5051218;28;20191;-73
2021/03/03 02:13:59;;;;;;;0.70;0.50;;;6.80;99.90;;;6.95;100.00;19533.22;5052016;28;20173;-73
2021/03/03 02:16:28;;;;;;;0.70;0.60;;;6.70;99.90;;;6.98;100.00;20515.13;5050618;28;20431;-72
2021/03/03 02:18:58;;;;;;;0.70;0.60;;;6.80;99.90;;;6.89;100.00;21363.56;5044082;28;20227;-73
2021/03/03 02:21:33;;;;;;;0.80;0.60;;;6.80;99.90;;;6.85;100.00;22209.50;5033339;28;20186;-73
2021/03/03 02:24:07;;;;;;;0.70;0.70;;;6.70;99.90;;;7.05;100.00;24504.72;5032990;28;20185;-74
2021/03/03 02:26:37;;;;;;;0.90;0.90;;;6.70;99.90;;;6.99;100.00;22543.34;5037481;28;20554;-73
2021/03/03 02:29:08;;;;;;;0.70;0.60;;;6.80;99.90;;;7.00;100.00;22344.47;5045041;28;20186;-72
2021/03/03 02:31:41;;;;;;;0.80;0.75;;;6.80;99.90;;;6.83;100.00;22155.44;5050543;28;20443;-73
2021/03/03 02:34:12;;;;;;;0.70;0.63;;;6.70;99.90;;;6.76;100.00;25617.31;5043109;28;20272;-73
2021/03/03 02:36:41;;;;;;;1.80;1.70;;;6.60;99.90;;;6.58;100.00;28062.56;5051901;28;20819;-73
2021/03/03 02:39:10;;;;;;;0.70;0.60;;;6.50;99.90;;;6.48;100.00;31508.53;5052268;28;20202;-72
2021/03/03 02:41:40;;;;;;;0.70;0.60;;;6.30;99.90;;;6.72;100.00;35201.66;5051288;28;20191;-73
2021/03/03 02:44:08;;;;;;;0.70;0.60;;;6.50;99.90;;;6.85;100.00;31292.25;5052842;28;20185;-73
2021/03/03 02:46:35;;;;;;;0.70;0.60;;;6.60;99.90;;;6.86;100.00;29214.41;5053156;28;20209;-73
2021/03/03 02:49:04;;;;;;;1.05;0.95;;;6.60;99.90;;;6.92;100.00;27261.38;5052568;28;20615;-72
2021/03/03 02:51:31;;;;;;;0.80;0.70;;;6.60;99.90;;;6.92;100.00;25642.31;5071743;28;20185;-74
2021/03/03 02:53:59;;;;;;;0.70;0.60;;;6.60;99.90;;;6.75;100.00;24879.72;5037863;28;20198;-73
2021/03/03 02:56:27;;;;;;;0.80;0.70;;;6.50;99.90;;;6.72;100.00;26662.88;5036788;28;20198;-73
2021/03/03 02:58:57;;;;;;;0.70;0.60;;;6.50;99.90;;;6.59;100.00;27926.69;5042639;28;20189;-73
2021/03/03 03:01:27;;;;;;;0.70;0.60;;;6.40;99.90;;;6.57;100.00;30075.56;5056580;28;20184;-73
2021/03/03 03:04:01;;;;;;;0.70;0.60;;;6.40;99.90;;;6.73;100.00;27655.94;5049317;28;20211;-73
2021/03/03 03:06:35;;;;;;;0.70;0.60;;;6.50;99.90;;;6.86;100.00;26581.59;5036709;28;20205;-73
2021/03/03 03:09:07;;;;;;;0.70;0.60;;;6.50;99.90;;;6.81;100.00;23256.94;5036444;28;20669;-73
2021/03/03 03:11:42;;;;;;;0.70;0.50;;;6.60;99.90;;;6.87;100.00;24518.97;5036235;28;20171;-73
2021/03/03 03:14:13;;;;;;;1.00;0.90;;;6.50;99.90;;;7.02;100.00;19548.34;5051995;28;20181;-73
2021/03/03 03:16:42;;;;;;;0.70;0.60;;;6.70;99.90;;;7.05;100.00;17218.09;5056481;28;20228;-73
2021/03/03 03:19:15;;;;;;;0.70;0.60;;;6.70;99.90;;;7.05;100.00;14068.03;5053903;28;20211;-73
2021/03/03 03:21:47;;;;;;;0.70;0.60;;;6.70;99.90;;;7.19;100.00;10612.41;5056343;28;20171;-73
2021/03/03 03:24:19;;;;;;;0.70;0.70;;;6.90;99.90;;;7.20;100.00;7872.47;5055861;28;20637;-72
2021/03/03 03:26:48;;;;;;;0.70;0.60;;;6.90;99.90;;;7.21;100.00;5523.84;5054329;28;20213;-73
2021/03/03 03:29:16;;;;;;;0.80;0.75;;;6.90;99.90;;;7.16;100.00;4744.84;5050078;28;20189;-73
2021/03/03 03:31:45;;;;;;;0.70;0.60;;;6.80;99.90;;;7.26;100.00;5090.28;5048441;28;20214;-73
2021/03/03 03:34:13;;;;;;;0.70;0.63;;;6.80;99.90;;;7.16;100.00;4536.50;5045962;28;20206;-73
2021/03/03 03:36:42;;;;;;;0.70;0.60;;;6.80;99.90;;;7.11;100.00;5027.78;5036270;28;20201;-74
2021/03/03 03:39:12;;;;;;;0.70;0.60;;;6.80;99.90;;;7.03;100.00;4986.44;5041971;28;20273;-74
2021/03/03 03:41:41;;;;;;;0.70;0.60;;;6.70;99.90;;;6.95;100.00;6853.03;5055544;28;20251;-73
2021/03/03 03:44:13;;;;;;;0.70;0.60;;;6.60;99.90;;;6.96;100.00;7151.97;5055660;28;20589;-73
2021/03/03 03:46:42;;;;;;;0.70;0.60;;;6.60;99.90;;;6.87;100.00;7652.56;5055817;28;20219;-73
2021/03/03 03:49:10;;;;;;;0.70;0.60;;;6.50;99.90;;;6.85;100.00;10915.91;5050366;28;20568;-73
2021/03/03 03:51:41;;;;;;;0.70;0.60;;;6.50;99.90;;;6.90;100.00;12224.63;5047813;28;20184;-73
2021/03/03 03:54:09;;;;;;;0.70;0.60;;;6.50;99.90;;;6.94;100.00;12097.44;5055292;28;20177;-73
2021/03/03 03:56:39;;;;;;;0.70;0.70;;;6.60;99.90;;;6.93;100.00;11579.25;5055433;28;20194;-73
2021/03/03 03:59:05;;;;;;;0.70;0.70;;;6.60;99.90;;;6.94;100.00;10925.78;5053831;28;20202;-74
2021/03/03 04:01:32;;;;;;;0.70;0.60;;;6.60;99.90;;;6.97;100.00;12344.88;5055581;28;20179;-71
2021/03/03 04:04:00;;;;;;;0.70;0.60;;;6.60;99.90;;;7.08;100.00;9496.03;5049809;28;20214;-73
2021/03/03 04:06:28;;;;;;;0.70;0.60;;;6.70;99.90;;;7.10;100.00;6973.69;5055410;28;20177;-73
2021/03/03 04:08:55;;;;;;;0.70;0.60;;;6.70;99.90;;;7.17;100.00;6547.84;5054554;28;20835;-74
2021/03/03 04:11:23;;;;;;;0.70;0.60;;;6.80;99.90;;;7.23;100.00;2727.94;5064722;28;20201;-74
2021/03/03 04:13:50;;;;;;;0.70;0.60;;;6.80;99.90;;;7.24;100.00;1669.38;5060620;28;20192;-73
2021/03/03 04:16:17;;;;;;;0.70;0.60;;;6.80;99.90;;;7.18;100.00;2797.66;5038079;28;20204;-73
2021/03/03 04:18:44;;;;;;;0.70;0.50;;;6.70;99.90;;;7.16;100.00;1347.59;5052877;28;20252;-74
2021/03/03 04:21:12;;;;;;;0.70;0.60;;;6.80;99.90;;;7.12;100.00;2992.66;5055067;28;20460;-74
2021/03/03 04:23:39;;;;;;;0.80;0.70;;;6.60;99.90;;;7.06;100.00;3117.34;5053632;28;20265;-73
2021/03/03 04:26:07;;;;;;;0.70;0.60;;;6.70;99.90;;;7.05;100.00;5134.84;5054562;28;20211;-74
2021/03/03 04:28:34;;;;;;;0.90;0.90;;;6.60;99.90;;;6.99;100.00;7529.25;5054375;28;20190;-74
2021/03/03 04:31:01;;;;;;;1.80;1.40;;;6.60;99.90;;;6.99;100.00;8029.22;5052657;28;20776;-73
2021/03/03 04:33:29;;;;;;;0.70;0.50;;;6.60;99.90;;;7.02;100.00;8620.16;5065072;28;20240;-73
2021/03/03 04:35:56;;;;;;;0.70;0.60;;;6.60;99.90;;;7.03;100.00;10201.25;5035641;28;20444;-72
2021/03/03 04:38:24;;;;;;;0.70;0.60;;;6.60;99.90;;;7.07;100.00;9928.16;5034528;28;20879;-73
2021/03/03 04:40:51;;;;;;;0.70;0.50;;;6.60;99.90;;;7.12;100.00;9310.91;5035511;28;20456;-72
2021/03/03 04:43:17;;;;;;;0.70;0.60;;;6.70;99.90;;;7.16;100.00;9754.25;5043268;28;20190;-72
2021/03/03 04:45:44;;;;;;;0.70;0.60;;;6.70;99.90;;;7.17;100.00;9819.84;5053599;28;20186;-72
2021/03/03 04:48:12;;;;;;;0.70;0.60;;;6.60;99.90;;;7.11;100.00;9428.81;5054480;28;20454;-72
2021/03/03 04:50:39;;;;;;;0.70;0.60;;;6.60;99.90;;;7.02;100.00;11971.41;5042539;28;20192;-72
2021/03/03 04:53:07;;;;;;;0.70;0.60;;;6.60;99.90;;;7.13;100.00;12605.69;5034447;28;20198;-71
2021/03/03 04:55:34;;;;;;;0.70;0.60;;;6.70;99.90;;;7.23;100.00;7420.75;5035558;28;20244;-71
2021/03/03 04:58:02;;;;;;;0.70;0.60;;;6.80;99.90;;;7.19;100.00;5880.13;5045408;28;20281;-72
2021/03/03 05:00:29;;;;;;;0.75;0.70;;;6.70;99.90;;;7.24;100.00;4386.94;5051084;28;20791;-72
2021/03/03 05:02:56;;;;;;;0.70;0.60;;;6.80;99.90;;;7.26;100.00;2908.88;5059555;28;20222;-71
2021/03/03 05:05:23;;;;;;;0.70;0.60;;;6.80;99.90;;;7.15;100.00;4759.78;5041128;28;20879;-71
2021/03/03 05:07:50;;;;;;;0.70;0.70;;;6.70;99.90;;;7.15;100.00;5412.50;5033248;28;20405;-73
2021/03/03 05:10:17;;;;;;;0.70;0.60;;;6.70;99.90;;;7.07;100.00;6470.84;5037290;28;20198;-73
2021/03/03 05:12:45;;;;;;;0.70;0.67;;;6.60;99.90;;;6.97;100.00;9918.44;5042749;28;20253;-74
2021/03/03 05:15:13;;;;;;;0.70;0.60;;;6.60;99.90;;;7.02;100.00;12064.34;5034347;28;20470;-74
2021/03/03 05:17:40;;;;;;;0.70;0.65;;;6.60;99.90;;;6.95;100.00;14238.72;5033695;28;20272;-73
2021/03/03 05:20:09;;;;;;;0.70;0.60;;;6.50;99.90;;;6.82;100.00;17610.69;5036874;28;20231;-74
2021/03/03 05:22:36;;;;;;;0.70;0.60;;;6.50;99.90;;;6.74;100.00;21317.16;5035140;28;20722;-74
2021/03/03 05:25:04;;;;;;;0.70;0.60;;;6.40;99.90;;;6.76;100.00;24493.81;5039081;28;20202;-73
2021/03/03 05:27:31;;;;;;;0.70;0.60;;;6.40;99.90;;;6.71;100.00;27367.22;5050535;28;20537;-73
2021/03/03 05:29:59;;;;;;;0.80;0.70;;;6.30;99.90;;;6.84;100.00;30901.91;5042577;28;20192;-71
2021/03/03 05:32:26;;;;;;;0.70;0.60;;;6.40;99.90;;;6.87;100.00;30620.41;5041000;28;20428;-73
2021/03/03 05:34:53;;;;;;;0.70;0.60;;;6.50;99.90;;;6.88;100.00;26766.97;5052374;28;20745;-73
2021/03/03 05:37:20;;;;;;;0.70;0.60;;;6.50;99.90;;;7.03;100.00;25228.47;5053617;28;20190;-73
2021/03/03 05:39:47;;;;;;;0.70;0.60;;;6.60;99.90;;;7.05;100.00;23184.47;5046452;28;20329;-73
2021/03/03 05:42:14;;;;;;;0.70;0.60;;;6.60;99.90;;;7.09;100.00;22446.78;5033839;28;20171;-71
2021/03/03 05:44:45;;;;;;;0.70;0.60;;;6.60;99.90;;;7.17;100.00;18898.59;5046475;28;20236;-72
2021/03/03 05:47:17;;;;;;;0.70;0.60;;;6.60;99.90;;;7.24;100.00;18286.09;5050564;28;20279;-71
2021/03/03 05:49:47;;;;;;;0.70;0.50;;;6.70;99.90;;;7.24;100.00;15645.16;5044295;28;20249;-72
2021/03/03 05:52:16;;;;;;;0.70;0.60;;;6.70;99.90;;;7.19;100.00;16036.50;5040224;28;20205;-71
2021/03/03 05:54:44;;;;;;;0.70;0.60;;;6.70;99.90;;;7.18;100.00;15839.69;5033192;28;20421;-74
2021/03/03 05:57:12;;;;;;;0.70;0.50;;;6.60;99.90;;;7.23;100.00;13982.78;5037450;28;20433;-73
2021/03/03 05:59:40;;;;;;;0.70;0.60;;;6.70;99.90;;;7.19;100.00;13216.34;5033368;28;20479;-71
2021/03/03 06:02:08;;;;;;;0.80;0.70;;;6.70;99.90;;;7.22;100.00;13046.06;5049192;28;20505;-72
2021/03/03 06:04:37;;;;;;;1.00;1.00;;;6.70;99.90;;;7.20;100.00;12798.84;5044969;28;20223;-74
2021/03/03 06:07:04;;;;;;;0.70;0.70;;;6.70;99.90;;;7.22;100.00;11385.31;5033758;28;20431;-73
2021/03/03 06:09:31;;;;;;;0.70;0.60;;;6.70;99.90;;;7.20;100.00;12846.69;5033192;28;20441;-72
2021/03/03 06:11:58;;;;;;;0.70;0.60;;;6.70;99.90;;;7.22;100.00;13192.03;5033348;28;20429;-73
2021/03/03 06:14:25;;;;;;;1.00;0.90;;;6.70;99.90;;;7.19;100.00;13181.13;5039955;28;20438;-72
2021/03/03 06:16:54;;;;;;;0.70;0.60;;;6.70;99.90;;;7.18;100.00;13769.84;5052936;28;20524;-73
2021/03/03 06:19:21;;;;;;;0.70;0.60;;;6.60;99.90;;;7.15;100.00;12986.22;5052223;28;21020;-72
2021/03/03 06:21:49;;;;;;;0.70;0.60;;;6.70;99.90;;;7.10;100.00;14786.84;5051335;28;20489;-71
2021/03/03 06:24:17;;;;;;;0.70;0.60;;;6.60;99.90;;;7.07;100.00;16440.56;5055808;28;20431;-72
2021/03/03 06:27:04;;;;;;;0.70;0.60;;;6.60;99.90;;;7.11;100.00;16779.31;5055923;28;20447;-72
2021/03/03 06:29:31;;;;;;;0.70;0.60;;;6.60;99.90;;;7.15;100.00;15760.63;5050238;28;20447;-71
2021/03/03 06:32:02;;;;;;;0.70;0.60;;;6.70;99.90;;;7.13;100.00;16442.56;5056414;28;20537;-74
2021/03/03 06:34:49;;;;;;;0.70;0.60;;;6.60;99.90;;;7.22;100.00;14397.91;5047353;28;20456;-72
2021/03/03 06:37:17;;;;;;;0.70;0.60;;;6.70;99.90;;;7.25;100.00;12113.09;5037537;28;20443;-72
2021/03/03 06:39:44;;;;;;;0.73;0.65;;;6.70;99.90;;;7.23;100.00;8639.59;5053758;28;20210;-72
2021/03/03 06:42:25;;;;;;;0.70;0.60;;;6.70;99.90;;;7.23;100.00;12140.38;5066132;28;20276;-70
2021/03/03 06:44:56;;;;;;;0.70;0.60;;;6.70;99.90;;;7.26;100.00;12780.38;5058733;28;20423;-72
2021/03/03 06:47:24;;;;;;;0.70;0.60;;;6.70;99.90;;;7.32;100.00;11682.00;5062397;28;20216;-73
2021/03/03 06:49:54;;;;;;;0.70;0.60;;;6.70;99.90;;;7.26;100.00;10490.84;5060336;28;20551;-72
2021/03/03 06:52:41;;;;;;;0.70;0.60;;;6.70;99.90;;;7.21;100.00;12270.69;5063006;28;20193;-72
2021/03/03 06:55:10;;;;;;;0.70;0.60;;;6.70;99.90;;;7.28;100.00;12433.34;5070280;28;20934;-73
2021/03/03 06:57:38;;;;;;;0.80;0.70;;;6.70;99.90;;;7.30;100.00;15304.19;5057263;28;20771;-70
2021/03/03 07:00:08;;;;;;;0.70;0.60;;;6.70;99.90;;;7.18;100.00;17931.00;5038156;28;20203;-74
2021/03/03 07:02:37;;;;;;;0.70;0.60;;;6.60;99.90;;;7.21;100.00;17700.19;5052620;28;20427;-74
2021/03/03 07:05:10;;;;;;;0.70;0.60;;;6.70;99.90;;;7.28;100.00;19058.91;5063607;28;20909;-74
2021/03/03 07:07:37;;;;;;;0.70;0.70;;;6.70;99.90;;;7.54;100.00;15261.44;5042810;28;21025;-72
2021/03/03 07:10:07;;;;;;;0.70;0.60;;;6.90;99.90;;;7.57;100.00;12909.41;5062356;28;20955;-73
2021/03/03 07:12:48;;;;;;;0.70;0.50;;;6.90;99.90;;;7.68;100.00;9577.09;5055885;28;20196;-72
2021/03/03 07:15:15;;;;;;;3.33;1.37;;;7.00;99.90;;;7.91;100.00;5054.47;5054088;28;20440;-72
2021/03/03 07:17:45;;;;;;;0.70;0.60;;;7.10;99.90;;;7.99;100.00;440.88;5045826;28;20444;-72
2021/03/03 07:20:16;;;;;;;0.70;0.60;;;7.20;99.90;;;7.94;100.00;-1687.44;5048471;28;20460;-71
2021/03/03 07:22:48;;;;;;;0.70;0.60;;;7.20;99.90;;;8.04;100.00;-4365.53;5064329;28;20423;-72
2021/03/03 07:25:18;;;;;;;0.70;0.60;;;7.30;99.90;;;8.21;100.00;-5727.00;5066303;28;20466;-71
2021/03/03 07:27:48;;;;;;;0.70;0.50;;;7.40;99.90;;;8.54;100.00;-10148.78;5053828;28;20497;-72
2021/03/03 07:30:17;;;;;;;0.70;0.60;;;7.60;99.90;;;8.63;100.00;-16718.22;5056144;28;20893;-72
2021/03/03 07:32:45;;;;;;;0.70;0.60;;;7.70;99.90;;;8.73;100.00;-18779.66;5065114;28;20492;-72
2021/03/03 07:35:32;;;;;;;1.93;1.57;;;7.80;99.90;;;8.98;100.00;-20822.25;5056591;28;20445;-71
2021/03/03 07:38:02;;;;;;;2.00;1.90;;;8.00;99.90;;;9.14;100.00;-20930.84;5067935;28;20432;-72
2021/03/03 07:40:31;;;;;;;0.70;0.60;;;8.10;99.90;;;9.36;100.00;-20936.81;5059807;28;20459;-72
2021/03/03 07:43:01;;;;;;;1.03;0.93;;;8.30;99.90;;;9.57;100.00;-20942.63;5063241;28;20925;-72
2021/03/03 07:45:38;;;;;;;1.63;1.33;;;8.40;99.90;;;9.90;100.00;-20951.50;5059454;28;20922;-72
2021/03/03 07:48:09;;;;;;;0.70;0.60;;;8.50;99.90;;;9.65;100.00;-20944.84;5050133;28;20460;-72
2021/03/03 07:50:37;;;;;;;0.70;0.60;;;8.70;99.90;;;9.47;100.00;-20939.84;5040566;28;20437;-72
2021/03/03 07:53:05;;;;;;;0.73;0.60;;;8.70;99.90;;;9.74;100.00;-20947.06;5046946;28;20775;-72
2021/03/03 07:55:33;;;;;;;0.70;0.60;;;8.70;99.90;;;9.86;100.00;-20950.53;5055872;28;20516;-72
2021/03/03 07:58:01;;;;;;;0.70;0.60;;;8.70;99.90;;;9.80;100.00;-20948.84;5055779;28;20441;-72
2021/03/03 08:00:32;;;;;;;0.70;0.70;;;8.70;99.90;;;9.86;100.00;-20950.38;5051664;28;20456;-71
2021/03/03 08:03:04;;;;;;;0.70;0.60;;;8.80;99.90;;;10.15;100.00;-20958.41;5049469;28;20466;-73
2021/03/03 08:05:51;;;;;;;0.90;0.90;;;8.80;99.90;;;9.89;100.00;-20951.22;5055646;28;21005;-71
2021/03/03 08:08:24;;;;;;;0.70;0.53;;;8.80;99.90;;;10.31;100.00;-20962.56;5074033;28;20438;-74
2021/03/03 08:11:25;;;;;;;0.80;0.70;;;8.80;99.90;;;10.35;100.00;-20963.81;5064839;28;20926;-73
2021/03/03 08:13:53;;;;;;;0.70;0.70;;;8.90;99.90;;;10.39;100.00;-20964.78;5065850;28;20472;-72
2021/03/03 08:16:20;;;;;;;0.70;0.60;;;9.00;99.90;;;10.45;100.00;-20966.31;5060209;28;20432;-72
2021/03/03 08:18:53;;;;;;;0.80;0.80;;;9.20;99.90;;;10.36;100.00;-20964.09;5049890;28;20458;-73
2021/03/03 08:21:28;;;;;;;0.70;0.67;;;9.30;99.90;;;10.87;100.00;-20977.78;5034422;28;20506;-72
2021/03/03 08:23:56;;;;;;;0.70;0.60;;;9.40;99.90;;;10.78;100.00;-20975.44;5060849;28;20426;-72
2021/03/03 08:26:37;;;;;;;0.70;0.60;;;9.50;99.90;;;10.86;100.00;-20977.66;5063975;28;20478;-72
2021/03/03 08:29:32;;;;;;;0.70;0.60;;;9.40;99.90;;;10.95;100.00;-20980.00;5054596;28;20450;-72
2021/03/03 08:32:23;;;;;;;2.93;2.70;;;9.40;99.90;;;10.54;100.00;-20968.94;5053099;28;20438;-73
2021/03/03 08:34:53;;;;;;;0.80;0.70;;;9.40;99.90;;;10.48;100.00;-20967.28;5052588;28;20473;-73
2021/03/03 08:37:33;;;;;;;0.77;0.70;;;9.50;99.90;;;10.61;100.00;-20970.88;5035911;28;20825;-72
2021/03/03 08:40:03;;;;;;;0.80;0.70;;;9.70;99.90;;;11.03;100.00;-20982.06;5041748;28;20850;-72
2021/03/03 08:42:38;;;;;;;0.80;0.80;;;9.80;99.90;;;11.34;100.00;-20990.63;5056077;28;20420;-73
2021/03/03 08:45:14;;;;;;;0.70;0.70;;;10.00;99.60;;;11.57;100.00;-20996.84;5068884;28;20570;-73
2021/03/03 08:48:10;;;;;;;1.00;0.90;;;10.20;98.80;;;11.72;100.00;-21000.88;5034693;28;20936;-74
2021/03/03 08:50:47;;;;;;;0.70;0.70;;;10.30;98.10;;;11.96;100.00;-21007.34;5052938;28;20793;-73
2021/03/03 08:53:49;;;;;;;0.80;0.70;;;10.30;96.90;;;11.90;100.00;-21005.56;5040339;28;20429;-73
2021/03/03 08:56:37;;;;;;;0.80;0.73;;;10.30;96.30;;;12.00;100.00;-21008.47;5043773;28;20430;-73
2021/03/03 08:59:06;;;;;;;0.80;0.70;;;10.50;96.20;;;12.36;100.00;-21018.00;5045953;28;20427;-73
2021/03/03 09:01:58;;;;;;;0.80;0.80;;;10.70;96.30;;;12.37;100.00;-21018.41;5044965;28;20459;-72
2021/03/03 09:04:29;;;;;;;2.60;1.63;;;11.00;94.40;;;12.78;100.00;-21029.44;5048881;28;20481;-73
2021/03/03 09:06:59;;;;;;;1.20;1.10;;;11.10;94.60;;;12.26;100.00;-21015.38;5055178;28;20505;-74
2021/03/03 09:09:28;;;;;;;0.80;0.80;;;11.20;94.10;;;12.55;100.00;-21023.22;5052166;28;20441;-74
2021/03/03 09:12:05;;;;;;;0.80;0.70;;;11.50;93.10;;;13.02;100.00;-21036.06;5054014;28;20438;-74
2021/03/03 09:14:35;;;;;;;0.80;0.70;;;11.70;92.40;;;14.07;100.00;-21064.19;5050828;28;20433;-73
2021/03/03 09:17:04;;;;;;;0.80;0.70;;;11.90;90.90;;;14.19;100.00;-21067.50;5053591;28;20438;-74
2021/03/03 09:19:35;;;;;;;2.37;2.17;;;12.00;90.30;;;13.69;100.00;-21054.00;5053603;28;20980;-73
2021/03/03 09:22:15;;;;;;;0.80;0.80;;;12.30;90.40;;;14.54;100.00;-21077.00;5045879;28;20766;-74
2021/03/03 09:24:43;;;;;;;0.80;0.60;;;12.40;88.80;;;15.09;100.00;-21091.72;5043489;28;20454;-73
2021/03/03 09:27:15;;;;;;;0.80;0.73;;;12.60;88.50;;;15.17;100.00;-21093.91;5051367;28;20492;-73
2021/03/03 09:29:44;;;;;;;0.90;0.80;;;12.90;85.30;;;15.36;100.00;-21099.13;5052519;28;20474;-74
2021/03/03 09:32:19;;;;;;;1.00;0.90;;;13.20;83.00;;;15.50;100.00;-21102.72;5047724;28;21050;-73
2021/03/03 09:34:50;;;;;;;1.00;0.90;;;13.50;79.20;;;15.72;100.00;-21108.75;5050765;28;20469;-70
2021/03/03 09:37:19;;;;;;;1.00;0.80;;;13.60;79.10;;;16.18;100.00;-21121.13;5064972;28;20431;-72
2021/03/03 09:39:52;;;;;;;1.10;0.97;;;13.60;75.70;;;16.14;100.00;-21120.03;5062044;28;20463;-72
2021/03/03 09:42:19;;;;;;;1.00;0.90;;;13.70;77.10;;;16.31;100.00;-21124.69;5061190;28;20431;-72
2021/03/03 09:44:51;;;;;;;0.80;0.70;;;13.90;72.70;;;16.28;100.00;-21123.88;5034724;28;20851;-73
2021/03/03 09:47:27;;;;;;;1.20;0.80;;;14.00;72.80;;;16.70;100.00;-21135.13;5053811;28;20455;-72
2021/03/03 09:50:00;;;;;;;1.07;0.97;;;14.40;71.70;;;16.68;100.00;-21134.59;5049870;28;20450;-73
2021/03/03 09:52:35;;;;;;;0.83;0.83;;;14.90;72.00;;;17.27;100.00;-21150.50;5042950;28;20406;-73
2021/03/03 09:55:06;;;;;;;0.80;0.70;;;14.30;66.50;;;17.55;100.00;-21158.03;5036514;28;20414;-71
2021/03/03 09:57:33;;;;;;;8.00;1.67;;;14.10;66.30;;;17.11;100.00;-21146.25;5032512;28;20433;-73
2021/03/03 10:00:06;;;;;;;0.80;0.70;;;14.00;70.30;;;16.57;100.00;-21131.72;5054452;28;20441;-73
2021/03/03 10:02:39;;;;;;;0.70;0.60;;;14.70;70.30;;;16.63;100.00;-21133.22;5058780;28;20411;-72
2021/03/03 10:05:08;;;;;;;1.00;0.90;;;14.80;66.90;;;17.98;100.00;-21169.44;5041163;28;20445;-73
2021/03/03 10:07:35;;;;;;;1.00;0.80;;;15.00;63.20;;;17.52;100.00;-21157.09;5063292;28;20462;-73
2021/03/03 10:10:03;;;;;;;2.33;1.50;;;15.30;64.10;;;17.94;100.00;-21168.34;5059956;28;20784;-73
2021/03/03 10:12:36;;;;;;;1.37;1.27;;;15.10;62.00;;;18.04;100.00;-21171.06;5059938;28;20828;-73
2021/03/03 10:15:09;;;;;;;0.70;0.60;;;15.20;60.30;;;17.93;100.00;-21168.19;5053229;28;20428;-73
2021/03/03 10:17:42;;;;;;;0.97;0.90;;;15.40;58.90;;;17.50;100.00;-21156.53;5056646;28;20418;-72
2021/03/03 10:20:30;;;;;;;2.60;2.37;;;15.70;59.90;;;17.90;100.00;-21167.25;5047384;28;20463;-73
2021/03/03 10:23:05;;;;;;;1.37;1.20;;;15.60;58.60;;;18.05;100.00;-21171.34;5052639;28;20486;-73
2021/03/03 10:25:36;;;;;;;0.70;0.63;;;15.70;58.10;;;17.63;100.00;-21160.09;5053218;28;20441;-72
2021/03/03 10:28:07;;;;;;;4.40;1.10;;;15.60;57.10;;;18.00;100.00;-21170.09;5058521;28;20455;-73
2021/03/03 10:30:38;;;;;;;1.83;1.40;;;15.10;55.90;;;17.83;100.00;-21165.59;5047982;28;20432;-72
2021/03/03 10:33:06;;;;;;;0.80;0.60;;;15.10;56.10;;;17.72;100.00;-21162.56;5050819;28;21010;-73
2021/03/03 10:35:47;;;;;;;0.80;0.70;;;15.50;57.10;;;17.70;100.00;-21161.88;5041447;28;20468;-73